CVX weather

Charlevoix Municipal Airport
Charlevoix, Michigan, United States

Public forecast

Using degrees Fahrenheit for public forecast. Weather courtesy of forecast.io.

METAR (pilot weather report)

Retrieved 2019/09/18 16:40 UTC (0 seconds ago):

KCVX 181640Z AUTO 19004KT 10SM CLR 26/13 A3019 RMK AO2 T02560134

TAF (pilot weather forecast)

Closest forecast is Pellston Regional Airport of Emmet County Airport, 25.7 nm (47.6 km) NE. Retrieved 2019/09/18 12:36 UTC (4 hours ago):

TAF KPLN 181134Z 1812/1912 VRB03KT 5SM BR SCT150 TEMPO 1812/1813 1 1/2SM BR SCT002 FM181300 VRB04KT P6SM SCT150 FM181600 19008KT P6SM FEW150 FM182300 16007KT P6SM FEW200 FM190300 17007KT P6SM SCT150 WS020/20035KT FM191100 19008KT P6SM SCT180 WS015/23035KT